sensor_id;sensor_type;location;lat;lon;timestamp;P1;durP1;ratioP1;P2;durP2;ratioP2
7383;SDS011;3733;47.994;8.820;2023-10-08T00:01:14;12.73;;;6.57;;
7383;SDS011;3733;47.994;8.820;2023-10-08T00:03:42;11.47;;;7.00;;
7383;SDS011;3733;47.994;8.820;2023-10-08T00:06:14;12.90;;;7.10;;
7383;SDS011;3733;47.994;8.820;2023-10-08T00:08:40;12.23;;;7.57;;
7383;SDS011;3733;47.994;8.820;2023-10-08T00:11:06;11.03;;;7.40;;
7383;SDS011;3733;47.994;8.820;2023-10-08T00:13:32;13.80;;;6.93;;
7383;SDS011;3733;47.994;8.820;2023-10-08T00:16:11;12.23;;;7.60;;
7383;SDS011;3733;47.994;8.820;2023-10-08T00:18:42;13.20;;;6.87;;
7383;SDS011;3733;47.994;8.820;2023-10-08T00:21:14;13.90;;;7.20;;
7383;SDS011;3733;47.994;8.820;2023-10-08T00:23:40;14.63;;;7.47;;
7383;SDS011;3733;47.994;8.820;2023-10-08T00:26:21;14.27;;;7.03;;
7383;SDS011;3733;47.994;8.820;2023-10-08T00:28:53;13.43;;;6.43;;
7383;SDS011;3733;47.994;8.820;2023-10-08T00:31:24;11.70;;;6.47;;
7383;SDS011;3733;47.994;8.820;2023-10-08T00:34:02;10.53;;;6.00;;
7383;SDS011;3733;47.994;8.820;2023-10-08T00:36:30;12.00;;;6.23;;
7383;SDS011;3733;47.994;8.820;2023-10-08T00:38:55;9.90;;;5.90;;
7383;SDS011;3733;47.994;8.820;2023-10-08T00:41:25;8.57;;;5.23;;
7383;SDS011;3733;47.994;8.820;2023-10-08T00:43:55;12.43;;;5.80;;
7383;SDS011;3733;47.994;8.820;2023-10-08T00:46:24;12.30;;;6.47;;
7383;SDS011;3733;47.994;8.820;2023-10-08T00:48:51;12.57;;;6.27;;
7383;SDS011;3733;47.994;8.820;2023-10-08T00:51:24;15.77;;;6.87;;
7383;SDS011;3733;47.994;8.820;2023-10-08T00:53:54;8.57;;;5.50;;
7383;SDS011;3733;47.994;8.820;2023-10-08T00:56:30;13.63;;;5.90;;
7383;SDS011;3733;47.994;8.820;2023-10-08T00:59:16;12.70;;;6.30;;
7383;SDS011;3733;47.994;8.820;2023-10-08T01:01:45;10.43;;;5.60;;
7383;SDS011;3733;47.994;8.820;2023-10-08T01:04:18;11.93;;;6.20;;
7383;SDS011;3733;47.994;8.820;2023-10-08T01:06:52;11.43;;;6.50;;
7383;SDS011;3733;47.994;8.820;2023-10-08T01:09:21;12.93;;;6.13;;
7383;SDS011;3733;47.994;8.820;2023-10-08T01:14:41;12.43;;;5.90;;
7383;SDS011;3733;47.994;8.820;2023-10-08T01:17:10;11.80;;;6.40;;
7383;SDS011;3733;47.994;8.820;2023-10-08T01:19:45;13.07;;;6.17;;
7383;SDS011;3733;47.994;8.820;2023-10-08T01:22:20;15.37;;;6.50;;
7383;SDS011;3733;47.994;8.820;2023-10-08T01:24:50;10.10;;;5.13;;
7383;SDS011;3733;47.994;8.820;2023-10-08T01:27:18;9.83;;;5.57;;
7383;SDS011;3733;47.994;8.820;2023-10-08T01:29:49;10.47;;;6.30;;
7383;SDS011;3733;47.994;8.820;2023-10-08T01:32:18;12.53;;;6.30;;
7383;SDS011;3733;47.994;8.820;2023-10-08T01:34:45;8.60;;;5.30;;
7383;SDS011;3733;47.994;8.820;2023-10-08T01:37:15;11.47;;;6.13;;
7383;SDS011;3733;47.994;8.820;2023-10-08T01:39:45;12.07;;;5.80;;
7383;SDS011;3733;47.994;8.820;2023-10-08T01:42:11;12.47;;;5.80;;
7383;SDS011;3733;47.994;8.820;2023-10-08T01:44:45;10.23;;;5.63;;
7383;SDS011;3733;47.994;8.820;2023-10-08T01:47:12;13.37;;;6.30;;
7383;SDS011;3733;47.994;8.820;2023-10-08T01:49:40;12.67;;;6.30;;
7383;SDS011;3733;47.994;8.820;2023-10-08T01:52:08;11.73;;;5.30;;
7383;SDS011;3733;47.994;8.820;2023-10-08T01:54:42;11.33;;;6.13;;
7383;SDS011;3733;47.994;8.820;2023-10-08T01:57:09;11.80;;;6.10;;
7383;SDS011;3733;47.994;8.820;2023-10-08T01:59:35;9.80;;;5.20;;
7383;SDS011;3733;47.994;8.820;2023-10-08T02:02:02;9.90;;;6.07;;
7383;SDS011;3733;47.994;8.820;2023-10-08T02:04:30;10.37;;;6.20;;
7383;SDS011;3733;47.994;8.820;2023-10-08T02:07:02;8.83;;;4.83;;
7383;SDS011;3733;47.994;8.820;2023-10-08T02:09:37;10.87;;;6.80;;
7383;SDS011;3733;47.994;8.820;2023-10-08T02:12:03;9.17;;;5.33;;
7383;SDS011;3733;47.994;8.820;2023-10-08T02:14:29;11.73;;;6.33;;
7383;SDS011;3733;47.994;8.820;2023-10-08T02:17:00;14.47;;;7.07;;
7383;SDS011;3733;47.994;8.820;2023-10-08T02:19:31;13.43;;;5.87;;
7383;SDS011;3733;47.994;8.820;2023-10-08T02:21:57;9.73;;;5.90;;
7383;SDS011;3733;47.994;8.820;2023-10-08T02:24:23;14.30;;;6.17;;
7383;SDS011;3733;47.994;8.820;2023-10-08T02:26:53;11.03;;;5.80;;
7383;SDS011;3733;47.994;8.820;2023-10-08T02:29:20;9.23;;;5.70;;
7383;SDS011;3733;47.994;8.820;2023-10-08T02:31:49;10.50;;;6.10;;
7383;SDS011;3733;47.994;8.820;2023-10-08T02:34:15;13.43;;;6.37;;
7383;SDS011;3733;47.994;8.820;2023-10-08T02:36:41;11.20;;;6.40;;
7383;SDS011;3733;47.994;8.820;2023-10-08T02:39:07;9.33;;;6.63;;
7383;SDS011;3733;47.994;8.820;2023-10-08T02:41:41;14.03;;;6.47;;
7383;SDS011;3733;47.994;8.820;2023-10-08T02:44:10;13.50;;;6.50;;
7383;SDS011;3733;47.994;8.820;2023-10-08T02:46:41;13.13;;;6.03;;
7383;SDS011;3733;47.994;8.820;2023-10-08T02:49:12;9.60;;;5.97;;
7383;SDS011;3733;47.994;8.820;2023-10-08T02:51:45;13.20;;;6.27;;
7383;SDS011;3733;47.994;8.820;2023-10-08T02:54:12;15.10;;;7.30;;
7383;SDS011;3733;47.994;8.820;2023-10-08T02:56:48;9.23;;;6.20;;
7383;SDS011;3733;47.994;8.820;2023-10-08T02:59:20;11.70;;;6.10;;
7383;SDS011;3733;47.994;8.820;2023-10-08T03:01:47;14.63;;;6.67;;
7383;SDS011;3733;47.994;8.820;2023-10-08T03:04:15;11.83;;;6.30;;
7383;SDS011;3733;47.994;8.820;2023-10-08T03:06:46;12.60;;;6.17;;
7383;SDS011;3733;47.994;8.820;2023-10-08T03:09:19;13.10;;;6.80;;
7383;SDS011;3733;47.994;8.820;2023-10-08T03:11:48;13.77;;;6.70;;
7383;SDS011;3733;47.994;8.820;2023-10-08T03:14:15;14.97;;;6.70;;
7383;SDS011;3733;47.994;8.820;2023-10-08T03:16:50;12.43;;;6.07;;
7383;SDS011;3733;47.994;8.820;2023-10-08T03:19:18;17.83;;;6.47;;
7383;SDS011;3733;47.994;8.820;2023-10-08T03:21:47;12.00;;;6.50;;
7383;SDS011;3733;47.994;8.820;2023-10-08T03:24:15;15.70;;;6.43;;
7383;SDS011;3733;47.994;8.820;2023-10-08T03:26:59;15.30;;;6.70;;
7383;SDS011;3733;47.994;8.820;2023-10-08T03:29:33;12.50;;;6.80;;
7383;SDS011;3733;47.994;8.820;2023-10-08T03:32:05;15.40;;;8.23;;
7383;SDS011;3733;47.994;8.820;2023-10-08T03:34:31;13.43;;;7.10;;
7383;SDS011;3733;47.994;8.820;2023-10-08T03:36:59;13.67;;;6.67;;
7383;SDS011;3733;47.994;8.820;2023-10-08T03:39:30;16.60;;;6.57;;
7383;SDS011;3733;47.994;8.820;2023-10-08T03:42:20;16.07;;;6.83;;
7383;SDS011;3733;47.994;8.820;2023-10-08T03:44:49;11.87;;;6.80;;
7383;SDS011;3733;47.994;8.820;2023-10-08T03:47:24;10.80;;;6.37;;
7383;SDS011;3733;47.994;8.820;2023-10-08T03:49:51;12.20;;;6.17;;
7383;SDS011;3733;47.994;8.820;2023-10-08T03:52:19;9.83;;;6.53;;
7383;SDS011;3733;47.994;8.820;2023-10-08T03:54:51;9.83;;;6.47;;
7383;SDS011;3733;47.994;8.820;2023-10-08T03:57:35;15.00;;;7.80;;
7383;SDS011;3733;47.994;8.820;2023-10-08T04:00:08;11.80;;;6.90;;
7383;SDS011;3733;47.994;8.820;2023-10-08T04:02:38;14.70;;;5.80;;
7383;SDS011;3733;47.994;8.820;2023-10-08T04:05:05;14.10;;;6.20;;
7383;SDS011;3733;47.994;8.820;2023-10-08T04:07:44;13.10;;;6.40;;
7383;SDS011;3733;47.994;8.820;2023-10-08T04:10:26;14.60;;;6.17;;
7383;SDS011;3733;47.994;8.820;2023-10-08T04:13:07;13.90;;;6.30;;
7383;SDS011;3733;47.994;8.820;2023-10-08T04:15:41;15.87;;;6.77;;
7383;SDS011;3733;47.994;8.820;2023-10-08T04:18:07;13.33;;;6.93;;
7383;SDS011;3733;47.994;8.820;2023-10-08T04:20:33;14.90;;;6.47;;
7383;SDS011;3733;47.994;8.820;2023-10-08T04:23:07;13.50;;;6.73;;
7383;SDS011;3733;47.994;8.820;2023-10-08T04:25:45;14.33;;;6.20;;
7383;SDS011;3733;47.994;8.820;2023-10-08T04:28:19;9.90;;;5.97;;
7383;SDS011;3733;47.994;8.820;2023-10-08T04:30:45;14.13;;;6.27;;
7383;SDS011;3733;47.994;8.820;2023-10-08T04:33:15;12.50;;;6.20;;
7383;SDS011;3733;47.994;8.820;2023-10-08T04:35:42;12.73;;;5.37;;
7383;SDS011;3733;47.994;8.820;2023-10-08T04:38:20;22.73;;;6.30;;
7383;SDS011;3733;47.994;8.820;2023-10-08T04:40:48;10.43;;;5.80;;
7383;SDS011;3733;47.994;8.820;2023-10-08T04:43:17;14.73;;;6.10;;
7383;SDS011;3733;47.994;8.820;2023-10-08T04:45:50;11.33;;;6.03;;
7383;SDS011;3733;47.994;8.820;2023-10-08T04:48:16;15.10;;;5.80;;
7383;SDS011;3733;47.994;8.820;2023-10-08T04:50:45;13.83;;;6.43;;
7383;SDS011;3733;47.994;8.820;2023-10-08T04:53:32;11.33;;;6.80;;
7383;SDS011;3733;47.994;8.820;2023-10-08T04:56:05;17.77;;;6.67;;
7383;SDS011;3733;47.994;8.820;2023-10-08T04:58:34;9.70;;;6.07;;
7383;SDS011;3733;47.994;8.820;2023-10-08T05:01:02;10.87;;;5.60;;
7383;SDS011;3733;47.994;8.820;2023-10-08T05:03:43;12.80;;;6.10;;
7383;SDS011;3733;47.994;8.820;2023-10-08T05:06:30;13.77;;;6.53;;
7383;SDS011;3733;47.994;8.820;2023-10-08T05:09:00;13.37;;;6.60;;
7383;SDS011;3733;47.994;8.820;2023-10-08T05:11:45;14.47;;;6.80;;
7383;SDS011;3733;47.994;8.820;2023-10-08T05:14:31;11.93;;;5.97;;
7383;SDS011;3733;47.994;8.820;2023-10-08T05:17:06;12.40;;;6.70;;
7383;SDS011;3733;47.994;8.820;2023-10-08T05:19:39;14.10;;;6.93;;
7383;SDS011;3733;47.994;8.820;2023-10-08T05:22:05;16.97;;;6.80;;
7383;SDS011;3733;47.994;8.820;2023-10-08T05:24:45;12.90;;;5.60;;
7383;SDS011;3733;47.994;8.820;2023-10-08T05:27:30;10.03;;;5.50;;
7383;SDS011;3733;47.994;8.820;2023-10-08T05:30:06;15.03;;;6.33;;
7383;SDS011;3733;47.994;8.820;2023-10-08T05:32:42;9.43;;;5.60;;
7383;SDS011;3733;47.994;8.820;2023-10-08T05:35:27;14.23;;;5.50;;
7383;SDS011;3733;47.994;8.820;2023-10-08T05:38:14;12.93;;;5.60;;
7383;SDS011;3733;47.994;8.820;2023-10-08T05:41:07;13.17;;;6.43;;
7383;SDS011;3733;47.994;8.820;2023-10-08T05:43:52;18.67;;;6.20;;
7383;SDS011;3733;47.994;8.820;2023-10-08T05:46:39;19.07;;;6.00;;
7383;SDS011;3733;47.994;8.820;2023-10-08T05:49:14;12.10;;;5.43;;
7383;SDS011;3733;47.994;8.820;2023-10-08T05:51:40;15.50;;;6.57;;
7383;SDS011;3733;47.994;8.820;2023-10-08T05:54:30;19.37;;;7.47;;
7383;SDS011;3733;47.994;8.820;2023-10-08T05:56:57;22.40;;;10.00;;
7383;SDS011;3733;47.994;8.820;2023-10-08T06:02:21;17.17;;;8.60;;
7383;SDS011;3733;47.994;8.820;2023-10-08T06:05:03;11.63;;;7.10;;
7383;SDS011;3733;47.994;8.820;2023-10-08T06:07:45;14.80;;;6.97;;
7383;SDS011;3733;47.994;8.820;2023-10-08T06:10:17;19.47;;;7.70;;
7383;SDS011;3733;47.994;8.820;2023-10-08T06:15:47;16.17;;;6.83;;
7383;SDS011;3733;47.994;8.820;2023-10-08T06:18:29;16.50;;;6.17;;
7383;SDS011;3733;47.994;8.820;2023-10-08T06:20:57;16.10;;;7.73;;
7383;SDS011;3733;47.994;8.820;2023-10-08T06:23:26;11.63;;;6.03;;
7383;SDS011;3733;47.994;8.820;2023-10-08T06:25:54;12.40;;;6.33;;
7383;SDS011;3733;47.994;8.820;2023-10-08T06:28:24;11.43;;;6.10;;
7383;SDS011;3733;47.994;8.820;2023-10-08T06:30:52;17.90;;;6.73;;
7383;SDS011;3733;47.994;8.820;2023-10-08T06:33:19;15.60;;;6.30;;
7383;SDS011;3733;47.994;8.820;2023-10-08T06:35:46;9.90;;;6.00;;
7383;SDS011;3733;47.994;8.820;2023-10-08T06:38:47;10.37;;;6.87;;
7383;SDS011;3733;47.994;8.820;2023-10-08T06:41:13;10.60;;;6.67;;
7383;SDS011;3733;47.994;8.820;2023-10-08T06:43:41;11.87;;;6.87;;
7383;SDS011;3733;47.994;8.820;2023-10-08T06:46:30;13.37;;;6.63;;
7383;SDS011;3733;47.994;8.820;2023-10-08T06:48:59;11.73;;;5.90;;
7383;SDS011;3733;47.994;8.820;2023-10-08T06:51:26;14.00;;;7.00;;
7383;SDS011;3733;47.994;8.820;2023-10-08T06:53:51;10.87;;;8.17;;
7383;SDS011;3733;47.994;8.820;2023-10-08T06:56:18;14.60;;;7.87;;
7383;SDS011;3733;47.994;8.820;2023-10-08T06:58:45;11.07;;;6.87;;
7383;SDS011;3733;47.994;8.820;2023-10-08T07:01:14;17.73;;;7.03;;
7383;SDS011;3733;47.994;8.820;2023-10-08T07:03:46;12.70;;;7.07;;
7383;SDS011;3733;47.994;8.820;2023-10-08T07:06:28;16.67;;;6.33;;
7383;SDS011;3733;47.994;8.820;2023-10-08T07:08:59;18.40;;;8.97;;
7383;SDS011;3733;47.994;8.820;2023-10-08T07:11:29;14.90;;;6.87;;
7383;SDS011;3733;47.994;8.820;2023-10-08T07:14:00;22.83;;;7.10;;
7383;SDS011;3733;47.994;8.820;2023-10-08T07:16:29;16.00;;;6.67;;
7383;SDS011;3733;47.994;8.820;2023-10-08T07:18:55;14.93;;;6.40;;
7383;SDS011;3733;47.994;8.820;2023-10-08T07:21:27;15.27;;;7.83;;
7383;SDS011;3733;47.994;8.820;2023-10-08T07:23:54;17.73;;;7.77;;
7383;SDS011;3733;47.994;8.820;2023-10-08T07:26:28;11.60;;;6.87;;
7383;SDS011;3733;47.994;8.820;2023-10-08T07:29:03;12.00;;;6.77;;
7383;SDS011;3733;47.994;8.820;2023-10-08T07:31:33;24.53;;;8.27;;
7383;SDS011;3733;47.994;8.820;2023-10-08T07:34:01;14.47;;;6.90;;
7383;SDS011;3733;47.994;8.820;2023-10-08T07:36:46;13.93;;;6.60;;
7383;SDS011;3733;47.994;8.820;2023-10-08T07:39:13;24.67;;;6.47;;
7383;SDS011;3733;47.994;8.820;2023-10-08T07:41:59;12.00;;;6.60;;
7383;SDS011;3733;47.994;8.820;2023-10-08T07:44:26;20.40;;;7.90;;
7383;SDS011;3733;47.994;8.820;2023-10-08T07:46:55;16.90;;;8.07;;
7383;SDS011;3733;47.994;8.820;2023-10-08T07:49:21;16.20;;;7.67;;
7383;SDS011;3733;47.994;8.820;2023-10-08T07:51:48;12.20;;;7.10;;
7383;SDS011;3733;47.994;8.820;2023-10-08T07:54:23;15.03;;;7.17;;
7383;SDS011;3733;47.994;8.820;2023-10-08T07:56:50;10.30;;;6.90;;
7383;SDS011;3733;47.994;8.820;2023-10-08T07:59:37;15.23;;;7.13;;
7383;SDS011;3733;47.994;8.820;2023-10-08T08:02:04;11.23;;;5.80;;
7383;SDS011;3733;47.994;8.820;2023-10-08T08:04:44;15.53;;;6.67;;
7383;SDS011;3733;47.994;8.820;2023-10-08T08:07:10;15.67;;;6.93;;
7383;SDS011;3733;47.994;8.820;2023-10-08T08:09:44;18.77;;;8.30;;
7383;SDS011;3733;47.994;8.820;2023-10-08T08:12:20;19.90;;;7.10;;
7383;SDS011;3733;47.994;8.820;2023-10-08T08:14:47;11.40;;;5.80;;
7383;SDS011;3733;47.994;8.820;2023-10-08T08:17:13;13.63;;;5.90;;
7383;SDS011;3733;47.994;8.820;2023-10-08T08:19:40;13.57;;;5.03;;
7383;SDS011;3733;47.994;8.820;2023-10-08T08:22:06;13.40;;;6.30;;
7383;SDS011;3733;47.994;8.820;2023-10-08T08:24:32;14.03;;;6.80;;
7383;SDS011;3733;47.994;8.820;2023-10-08T08:27:01;12.40;;;6.10;;
7383;SDS011;3733;47.994;8.820;2023-10-08T08:29:35;16.43;;;6.70;;
7383;SDS011;3733;47.994;8.820;2023-10-08T08:32:09;11.67;;;6.43;;
7383;SDS011;3733;47.994;8.820;2023-10-08T08:34:40;16.10;;;6.43;;
7383;SDS011;3733;47.994;8.820;2023-10-08T08:37:12;17.67;;;5.73;;
7383;SDS011;3733;47.994;8.820;2023-10-08T08:39:38;13.60;;;6.20;;
7383;SDS011;3733;47.994;8.820;2023-10-08T08:42:06;13.77;;;5.93;;
7383;SDS011;3733;47.994;8.820;2023-10-08T08:44:35;16.33;;;6.50;;
7383;SDS011;3733;47.994;8.820;2023-10-08T08:47:11;20.10;;;7.50;;
7383;SDS011;3733;47.994;8.820;2023-10-08T08:49:42;19.53;;;6.13;;
7383;SDS011;3733;47.994;8.820;2023-10-08T08:52:11;18.90;;;6.70;;
7383;SDS011;3733;47.994;8.820;2023-10-08T08:54:38;11.60;;;6.33;;
7383;SDS011;3733;47.994;8.820;2023-10-08T08:57:04;19.33;;;6.00;;
7383;SDS011;3733;47.994;8.820;2023-10-08T08:59:31;16.43;;;5.90;;
7383;SDS011;3733;47.994;8.820;2023-10-08T09:02:01;21.60;;;6.10;;
7383;SDS011;3733;47.994;8.820;2023-10-08T09:04:32;13.93;;;6.17;;
7383;SDS011;3733;47.994;8.820;2023-10-08T09:07:01;27.73;;;6.03;;
7383;SDS011;3733;47.994;8.820;2023-10-08T09:09:33;12.70;;;6.20;;
7383;SDS011;3733;47.994;8.820;2023-10-08T09:12:00;19.27;;;5.60;;
7383;SDS011;3733;47.994;8.820;2023-10-08T09:14:27;11.07;;;5.53;;
7383;SDS011;3733;47.994;8.820;2023-10-08T09:16:59;18.60;;;6.57;;
7383;SDS011;3733;47.994;8.820;2023-10-08T09:19:26;18.10;;;7.10;;
7383;SDS011;3733;47.994;8.820;2023-10-08T09:24:34;15.80;;;7.10;;
7383;SDS011;3733;47.994;8.820;2023-10-08T09:27:04;18.20;;;6.60;;
7383;SDS011;3733;47.994;8.820;2023-10-08T09:29:33;14.37;;;6.63;;
7383;SDS011;3733;47.994;8.820;2023-10-08T09:32:08;17.10;;;7.23;;
7383;SDS011;3733;47.994;8.820;2023-10-08T09:34:34;25.03;;;7.57;;
7383;SDS011;3733;47.994;8.820;2023-10-08T09:37:01;21.03;;;6.67;;
7383;SDS011;3733;47.994;8.820;2023-10-08T09:39:28;21.27;;;7.03;;
7383;SDS011;3733;47.994;8.820;2023-10-08T09:41:59;20.53;;;6.40;;
7383;SDS011;3733;47.994;8.820;2023-10-08T09:44:28;22.27;;;6.63;;
7383;SDS011;3733;47.994;8.820;2023-10-08T09:46:57;22.20;;;6.30;;
7383;SDS011;3733;47.994;8.820;2023-10-08T09:49:32;17.17;;;5.90;;
7383;SDS011;3733;47.994;8.820;2023-10-08T09:52:16;22.83;;;6.37;;
7383;SDS011;3733;47.994;8.820;2023-10-08T09:54:47;21.30;;;5.37;;
7383;SDS011;3733;47.994;8.820;2023-10-08T09:57:17;28.10;;;6.17;;
7383;SDS011;3733;47.994;8.820;2023-10-08T09:59:43;19.83;;;5.30;;
7383;SDS011;3733;47.994;8.820;2023-10-08T10:02:11;28.63;;;5.03;;
7383;SDS011;3733;47.994;8.820;2023-10-08T10:04:41;27.80;;;4.87;;
7383;SDS011;3733;47.994;8.820;2023-10-08T10:07:09;36.50;;;5.23;;
7383;SDS011;3733;47.994;8.820;2023-10-08T10:09:37;20.73;;;4.40;;
7383;SDS011;3733;47.994;8.820;2023-10-08T10:12:05;23.80;;;5.23;;
7383;SDS011;3733;47.994;8.820;2023-10-08T10:14:41;29.30;;;5.10;;
7383;SDS011;3733;47.994;8.820;2023-10-08T10:17:08;19.07;;;4.93;;
7383;SDS011;3733;47.994;8.820;2023-10-08T10:19:49;23.17;;;4.73;;
7383;SDS011;3733;47.994;8.820;2023-10-08T10:22:26;29.63;;;5.77;;
7383;SDS011;3733;47.994;8.820;2023-10-08T10:24:56;27.03;;;5.50;;
7383;SDS011;3733;47.994;8.820;2023-10-08T10:27:22;25.13;;;5.13;;
7383;SDS011;3733;47.994;8.820;2023-10-08T10:29:49;33.23;;;5.70;;
7383;SDS011;3733;47.994;8.820;2023-10-08T10:32:15;17.03;;;5.23;;
7383;SDS011;3733;47.994;8.820;2023-10-08T10:34:44;14.73;;;5.13;;
7383;SDS011;3733;47.994;8.820;2023-10-08T10:37:12;18.33;;;5.27;;
7383;SDS011;3733;47.994;8.820;2023-10-08T10:39:54;22.97;;;4.47;;
7383;SDS011;3733;47.994;8.820;2023-10-08T10:42:23;19.60;;;4.83;;
7383;SDS011;3733;47.994;8.820;2023-10-08T10:44:51;16.33;;;3.87;;
7383;SDS011;3733;47.994;8.820;2023-10-08T10:47:18;33.00;;;5.07;;
7383;SDS011;3733;47.994;8.820;2023-10-08T10:49:45;28.93;;;4.83;;
7383;SDS011;3733;47.994;8.820;2023-10-08T10:55:12;17.67;;;4.53;;
7383;SDS011;3733;47.994;8.820;2023-10-08T10:57:39;18.73;;;4.70;;
7383;SDS011;3733;47.994;8.820;2023-10-08T11:00:36;18.47;;;4.33;;
7383;SDS011;3733;47.994;8.820;2023-10-08T11:03:02;18.57;;;4.07;;
7383;SDS011;3733;47.994;8.820;2023-10-08T11:05:33;21.03;;;3.80;;
7383;SDS011;3733;47.994;8.820;2023-10-08T11:08:02;17.30;;;4.70;;
7383;SDS011;3733;47.994;8.820;2023-10-08T11:10:36;13.27;;;4.10;;
7383;SDS011;3733;47.994;8.820;2023-10-08T11:13:07;18.63;;;4.73;;
7383;SDS011;3733;47.994;8.820;2023-10-08T11:15:39;16.47;;;4.57;;
7383;SDS011;3733;47.994;8.820;2023-10-08T11:18:14;28.97;;;4.47;;
7383;SDS011;3733;47.994;8.820;2023-10-08T11:20:41;27.20;;;5.00;;
7383;SDS011;3733;47.994;8.820;2023-10-08T11:23:11;17.90;;;4.70;;
7383;SDS011;3733;47.994;8.820;2023-10-08T11:26:01;22.50;;;4.20;;
7383;SDS011;3733;47.994;8.820;2023-10-08T11:30:59;9.80;;;4.10;;
7383;SDS011;3733;47.994;8.820;2023-10-08T11:33:33;23.67;;;3.77;;
7383;SDS011;3733;47.994;8.820;2023-10-08T11:36:01;12.40;;;4.07;;
7383;SDS011;3733;47.994;8.820;2023-10-08T11:38:41;16.47;;;3.57;;
7383;SDS011;3733;47.994;8.820;2023-10-08T11:41:10;19.17;;;4.37;;
7383;SDS011;3733;47.994;8.820;2023-10-08T11:43:45;16.83;;;4.47;;
7383;SDS011;3733;47.994;8.820;2023-10-08T11:46:24;16.40;;;3.87;;
7383;SDS011;3733;47.994;8.820;2023-10-08T11:49:05;12.63;;;3.88;;
7383;SDS011;3733;47.994;8.820;2023-10-08T11:51:32;29.48;;;4.80;;
7383;SDS011;3733;47.994;8.820;2023-10-08T11:54:01;20.50;;;4.03;;
7383;SDS011;3733;47.994;8.820;2023-10-08T11:56:30;16.70;;;5.18;;
7383;SDS011;3733;47.994;8.820;2023-10-08T11:58:57;13.18;;;4.25;;
7383;SDS011;3733;47.994;8.820;2023-10-08T12:01:26;17.13;;;4.43;;
7383;SDS011;3733;47.994;8.820;2023-10-08T12:03:52;20.27;;;4.60;;
7383;SDS011;3733;47.994;8.820;2023-10-08T12:06:24;15.45;;;3.88;;
7383;SDS011;3733;47.994;8.820;2023-10-08T12:08:50;13.77;;;4.15;;
7383;SDS011;3733;47.994;8.820;2023-10-08T12:11:18;16.35;;;3.42;;
7383;SDS011;3733;47.994;8.820;2023-10-08T12:13:48;13.27;;;4.03;;
7383;SDS011;3733;47.994;8.820;2023-10-08T12:16:15;16.05;;;5.70;;
7383;SDS011;3733;47.994;8.820;2023-10-08T12:18:46;16.65;;;4.18;;
7383;SDS011;3733;47.994;8.820;2023-10-08T12:21:19;14.65;;;3.78;;
7383;SDS011;3733;47.994;8.820;2023-10-08T12:23:45;13.33;;;3.60;;
7383;SDS011;3733;47.994;8.820;2023-10-08T12:26:11;12.53;;;3.50;;
7383;SDS011;3733;47.994;8.820;2023-10-08T12:28:41;15.43;;;3.73;;
7383;SDS011;3733;47.994;8.820;2023-10-08T12:31:09;12.07;;;3.90;;
7383;SDS011;3733;47.994;8.820;2023-10-08T12:33:40;18.53;;;3.83;;
7383;SDS011;3733;47.994;8.820;2023-10-08T12:36:06;17.47;;;3.40;;
7383;SDS011;3733;47.994;8.820;2023-10-08T12:38:38;18.70;;;4.00;;
7383;SDS011;3733;47.994;8.820;2023-10-08T12:41:06;19.47;;;3.47;;
7383;SDS011;3733;47.994;8.820;2023-10-08T12:43:42;18.73;;;3.77;;
7383;SDS011;3733;47.994;8.820;2023-10-08T12:46:12;20.87;;;2.93;;
7383;SDS011;3733;47.994;8.820;2023-10-08T12:48:44;19.63;;;4.10;;
7383;SDS011;3733;47.994;8.820;2023-10-08T12:51:16;16.53;;;3.83;;
7383;SDS011;3733;47.994;8.820;2023-10-08T12:53:42;21.63;;;3.47;;
7383;SDS011;3733;47.994;8.820;2023-10-08T12:56:15;16.20;;;3.10;;
7383;SDS011;3733;47.994;8.820;2023-10-08T12:58:46;13.57;;;2.90;;
7383;SDS011;3733;47.994;8.820;2023-10-08T13:01:13;14.43;;;3.50;;
7383;SDS011;3733;47.994;8.820;2023-10-08T13:03:42;14.13;;;4.00;;
7383;SDS011;3733;47.994;8.820;2023-10-08T13:06:13;19.13;;;4.57;;
7383;SDS011;3733;47.994;8.820;2023-10-08T13:08:46;30.93;;;4.00;;
7383;SDS011;3733;47.994;8.820;2023-10-08T13:11:17;15.43;;;3.70;;
7383;SDS011;3733;47.994;8.820;2023-10-08T13:13:47;17.77;;;3.27;;
7383;SDS011;3733;47.994;8.820;2023-10-08T13:16:17;19.50;;;4.50;;
7383;SDS011;3733;47.994;8.820;2023-10-08T13:18:43;17.73;;;4.30;;
7383;SDS011;3733;47.994;8.820;2023-10-08T13:21:09;17.27;;;3.57;;
7383;SDS011;3733;47.994;8.820;2023-10-08T13:23:35;13.03;;;3.67;;
7383;SDS011;3733;47.994;8.820;2023-10-08T13:26:01;25.17;;;4.67;;
7383;SDS011;3733;47.994;8.820;2023-10-08T13:28:32;19.43;;;4.17;;
7383;SDS011;3733;47.994;8.820;2023-10-08T13:30:59;20.30;;;3.93;;
7383;SDS011;3733;47.994;8.820;2023-10-08T13:33:26;15.43;;;3.70;;
7383;SDS011;3733;47.994;8.820;2023-10-08T13:35:51;24.57;;;4.33;;
7383;SDS011;3733;47.994;8.820;2023-10-08T13:38:17;30.50;;;4.93;;
7383;SDS011;3733;47.994;8.820;2023-10-08T13:40:51;21.00;;;4.43;;
7383;SDS011;3733;47.994;8.820;2023-10-08T13:43:43;15.80;;;4.27;;
7383;SDS011;3733;47.994;8.820;2023-10-08T13:46:12;15.13;;;4.13;;
7383;SDS011;3733;47.994;8.820;2023-10-08T13:48:43;19.33;;;4.23;;
7383;SDS011;3733;47.994;8.820;2023-10-08T13:51:14;15.80;;;5.10;;
7383;SDS011;3733;47.994;8.820;2023-10-08T13:53:48;14.50;;;5.20;;
7383;SDS011;3733;47.994;8.820;2023-10-08T13:56:17;16.30;;;5.30;;
7383;SDS011;3733;47.994;8.820;2023-10-08T13:58:45;13.07;;;4.40;;
7383;SDS011;3733;47.994;8.820;2023-10-08T14:01:14;16.73;;;4.50;;
7383;SDS011;3733;47.994;8.820;2023-10-08T14:03:53;19.77;;;5.20;;
7383;SDS011;3733;47.994;8.820;2023-10-08T14:06:21;19.63;;;4.50;;
7383;SDS011;3733;47.994;8.820;2023-10-08T14:08:47;15.40;;;5.03;;
7383;SDS011;3733;47.994;8.820;2023-10-08T14:11:22;24.77;;;4.40;;
7383;SDS011;3733;47.994;8.820;2023-10-08T14:13:55;14.30;;;4.93;;
7383;SDS011;3733;47.994;8.820;2023-10-08T14:16:21;11.43;;;5.10;;
7383;SDS011;3733;47.994;8.820;2023-10-08T14:18:53;12.60;;;5.60;;
7383;SDS011;3733;47.994;8.820;2023-10-08T14:21:20;14.83;;;4.97;;
7383;SDS011;3733;47.994;8.820;2023-10-08T14:23:50;9.27;;;4.90;;
7383;SDS011;3733;47.994;8.820;2023-10-08T14:26:21;15.40;;;6.03;;
7383;SDS011;3733;47.994;8.820;2023-10-08T14:28:47;10.37;;;5.03;;
7383;SDS011;3733;47.994;8.820;2023-10-08T14:31:24;16.33;;;5.40;;
7383;SDS011;3733;47.994;8.820;2023-10-08T14:33:51;11.50;;;5.07;;
7383;SDS011;3733;47.994;8.820;2023-10-08T14:36:24;18.77;;;5.10;;
7383;SDS011;3733;47.994;8.820;2023-10-08T14:39:09;11.30;;;5.00;;
7383;SDS011;3733;47.994;8.820;2023-10-08T14:41:53;9.63;;;4.90;;
7383;SDS011;3733;47.994;8.820;2023-10-08T14:44:42;11.13;;;5.33;;
7383;SDS011;3733;47.994;8.820;2023-10-08T14:47:08;15.63;;;5.50;;
7383;SDS011;3733;47.994;8.820;2023-10-08T14:49:34;22.57;;;5.07;;
7383;SDS011;3733;47.994;8.820;2023-10-08T14:52:00;10.00;;;5.60;;
7383;SDS011;3733;47.994;8.820;2023-10-08T14:54:29;15.73;;;5.93;;
7383;SDS011;3733;47.994;8.820;2023-10-08T14:56:55;21.40;;;6.17;;
7383;SDS011;3733;47.994;8.820;2023-10-08T14:59:22;11.30;;;5.60;;
7383;SDS011;3733;47.994;8.820;2023-10-08T15:01:48;13.20;;;5.47;;
7383;SDS011;3733;47.994;8.820;2023-10-08T15:04:15;14.13;;;5.63;;
7383;SDS011;3733;47.994;8.820;2023-10-08T15:06:41;13.63;;;4.90;;
7383;SDS011;3733;47.994;8.820;2023-10-08T15:09:08;15.53;;;5.60;;
7383;SDS011;3733;47.994;8.820;2023-10-08T15:11:34;10.47;;;5.30;;
7383;SDS011;3733;47.994;8.820;2023-10-08T15:14:01;11.50;;;5.53;;
7383;SDS011;3733;47.994;8.820;2023-10-08T15:16:35;14.23;;;5.60;;
7383;SDS011;3733;47.994;8.820;2023-10-08T15:19:01;13.67;;;5.80;;
7383;SDS011;3733;47.994;8.820;2023-10-08T15:21:29;14.60;;;6.33;;
7383;SDS011;3733;47.994;8.820;2023-10-08T15:23:58;12.20;;;5.40;;
7383;SDS011;3733;47.994;8.820;2023-10-08T15:26:30;9.83;;;5.10;;
7383;SDS011;3733;47.994;8.820;2023-10-08T15:28:56;15.40;;;5.97;;
7383;SDS011;3733;47.994;8.820;2023-10-08T15:31:22;15.30;;;5.40;;
7383;SDS011;3733;47.994;8.820;2023-10-08T15:33:49;17.30;;;6.20;;
7383;SDS011;3733;47.994;8.820;2023-10-08T15:36:14;11.10;;;5.50;;
7383;SDS011;3733;47.994;8.820;2023-10-08T15:38:40;18.77;;;6.50;;
7383;SDS011;3733;47.994;8.820;2023-10-08T15:41:05;18.90;;;5.63;;
7383;SDS011;3733;47.994;8.820;2023-10-08T15:43:31;13.53;;;5.60;;